Time;durP1;ratioP1;P1;durP2;ratioP2;P2;SDS_P1;SDS_P2;PMS_P1;PMS_P2;Temp;Humidity;BMP_temperature;BMP_pressure;BME280_temperature;BME280_humidity;BME280_pressure;Samples;Min_cycle;Max_cycle;Signal;HPM_P1;HPM_P2
2024/01/30 00:02:18;;;;;;;69.13;63.37;;;;;;;6.99;100.00;102670.34;4962148;28;21124;-37
2024/01/30 00:04:48;;;;;;;64.00;58.30;;;;;;;7.00;100.00;102666.72;4958435;28;20479;-36
2024/01/30 00:07:16;;;;;;;65.17;59.50;;;;;;;7.01;100.00;102669.25;4959438;28;20451;-36
2024/01/30 00:09:44;;;;;;;66.80;61.13;;;;;;;7.05;100.00;102667.16;4962006;28;20496;-36
2024/01/30 00:12:12;;;;;;;59.57;55.10;;;;;;;7.05;100.00;102675.97;4964736;28;20462;-36
2024/01/30 00:14:42;;;;;;;65.60;59.77;;;;;;;7.07;100.00;102674.06;4963079;28;20467;-36
2024/01/30 00:17:10;;;;;;;64.10;58.80;;;;;;;7.10;100.00;102673.81;4962396;28;20510;-36
2024/01/30 00:19:38;;;;;;;65.50;60.00;;;;;;;7.09;100.00;102660.66;4962483;28;20478;-36
2024/01/30 00:22:08;;;;;;;63.33;58.07;;;;;;;7.07;100.00;102659.94;4962669;28;20471;-36
2024/01/30 00:24:36;;;;;;;62.03;56.90;;;;;;;7.04;100.00;102658.41;4965307;28;20438;-36
2024/01/30 00:27:04;;;;;;;61.70;56.80;;;;;;;7.04;100.00;102663.69;4966674;28;20443;-38
2024/01/30 00:29:33;;;;;;;66.97;60.67;;;;;;;7.04;100.00;102661.06;4963020;28;20903;-36
2024/01/30 00:32:01;;;;;;;64.03;58.43;;;;;;;7.06;100.00;102658.25;4963006;28;20478;-36
2024/01/30 00:34:29;;;;;;;66.47;60.53;;;;;;;7.07;100.00;102646.69;4965646;28;20448;-36
2024/01/30 00:36:57;;;;;;;66.60;61.23;;;;;;;7.08;100.00;102659.81;4966485;28;20441;-36
2024/01/30 00:39:27;;;;;;;64.07;58.80;;;;;;;7.09;100.00;102660.66;4964526;28;20503;-36
2024/01/30 00:41:54;;;;;;;72.03;65.93;;;;;;;7.10;100.00;102660.53;4962759;28;20868;-36
2024/01/30 00:44:22;;;;;;;64.57;58.87;;;;;;;7.12;100.00;102663.91;4963433;28;20470;-36
2024/01/30 00:46:50;;;;;;;64.60;59.33;;;;;;;7.14;100.00;102663.75;4966040;28;20434;-37
2024/01/30 00:49:18;;;;;;;62.13;56.90;;;;;;;7.17;100.00;102663.50;4964958;28;20565;-36
2024/01/30 00:51:46;;;;;;;65.43;59.93;;;;;;;7.18;100.00;102668.69;4963966;28;20485;-36
2024/01/30 00:54:14;;;;;;;67.13;61.37;;;;;;;7.17;100.00;102661.69;4958229;28;20439;-37
2024/01/30 00:56:43;;;;;;;66.33;60.53;;;;;;;7.18;100.00;102663.38;4963263;28;20446;-37
2024/01/30 00:59:12;;;;;;;69.47;63.80;;;;;;;7.19;100.00;102664.22;4961281;28;20470;-36
2024/01/30 01:01:40;;;;;;;66.40;60.47;;;;;;;7.20;100.00;102661.44;4962052;28;20815;-36
2024/01/30 01:04:08;;;;;;;60.53;55.53;;;;;;;7.21;100.00;102651.66;4961631;28;20502;-36
2024/01/30 01:06:36;;;;;;;67.43;61.63;;;;;;;7.20;100.00;102653.47;4965485;28;20454;-37
2024/01/30 01:09:04;;;;;;;67.93;61.70;;;;;;;7.22;100.00;102653.38;4965562;28;20807;-36
2024/01/30 01:11:32;;;;;;;62.60;57.30;;;;;;;7.22;100.00;102651.56;4964625;28;21108;-38
2024/01/30 01:14:01;;;;;;;68.30;61.60;;;;;;;7.24;100.00;102657.56;4964298;28;20454;-37
2024/01/30 01:16:29;;;;;;;65.10;59.87;;;;;;;7.26;100.00;102648.66;4964997;28;20438;-36
2024/01/30 01:18:58;;;;;;;67.17;60.90;;;;;;;7.27;100.00;102651.16;4963495;28;20517;-36
2024/01/30 01:21:25;;;;;;;68.57;62.50;;;;;;;7.28;100.00;102647.53;4962719;28;20518;-36
2024/01/30 01:23:54;;;;;;;65.60;59.70;;;;;;;7.28;100.00;102644.03;4966392;28;20463;-37
2024/01/30 01:26:22;;;;;;;70.33;63.90;;;;;;;7.28;100.00;102644.88;4965824;28;20542;-38
2024/01/30 01:28:50;;;;;;;66.90;61.27;;;;;;;7.29;100.00;102640.44;4965056;28;20445;-39
2024/01/30 01:31:22;;;;;;;67.03;60.73;;;;;;;7.30;100.00;102632.31;4965794;28;20479;-36
2024/01/30 01:33:50;;;;;;;65.90;60.43;;;;;;;7.31;100.00;102633.16;4964911;28;20521;-36
2024/01/30 01:36:18;;;;;;;68.03;62.53;;;;;;;7.32;100.00;102629.56;4963980;28;20440;-36
2024/01/30 01:38:46;;;;;;;69.70;64.00;;;;;;;7.33;100.00;102631.22;4964738;28;20531;-36
2024/01/30 01:41:14;;;;;;;72.20;65.30;;;;;;;7.32;100.00;102624.25;4964624;28;20467;-36
2024/01/30 01:43:41;;;;;;;70.77;64.17;;;;;;;7.32;100.00;102634.88;4963432;28;20506;-37
2024/01/30 01:46:10;;;;;;;65.63;60.00;;;;;;;7.34;100.00;102632.91;4964887;28;20447;-36
2024/01/30 01:48:39;;;;;;;68.77;62.40;;;;;;;7.34;100.00;102622.28;4961539;28;20495;-37
2024/01/30 01:51:09;;;;;;;70.97;64.70;;;;;;;7.35;100.00;102626.66;4960627;28;20570;-36
2024/01/30 01:53:37;;;;;;;70.60;64.57;;;;;;;7.34;100.00;102619.66;4968022;28;20462;-36
2024/01/30 01:56:06;;;;;;;71.30;65.23;;;;;;;7.33;100.00;102624.09;4958898;28;20530;-37
2024/01/30 01:58:34;;;;;;;68.87;63.27;;;;;;;7.34;100.00;102617.84;4961519;28;21179;-36
2024/01/30 02:01:03;;;;;;;67.33;61.73;;;;;;;7.35;100.00;102613.38;4961108;28;20971;-37
2024/01/30 02:03:31;;;;;;;65.13;59.33;;;;;;;7.35;100.00;102616.03;4962837;28;20546;-37
2024/01/30 02:06:02;;;;;;;70.27;63.87;;;;;;;7.35;100.00;102605.41;4964558;28;20497;-36
2024/01/30 02:08:29;;;;;;;68.47;62.47;;;;;;;7.33;100.00;102600.22;4963809;28;20806;-36
2024/01/30 02:10:57;;;;;;;68.43;62.93;;;;;;;7.33;100.00;102605.53;4963488;28;20471;-36
2024/01/30 02:13:25;;;;;;;66.57;61.50;;;;;;;7.33;100.00;102604.69;4964097;28;20554;-36
2024/01/30 02:15:53;;;;;;;65.17;60.00;;;;;;;7.33;100.00;102602.03;4967091;28;20444;-36
2024/01/30 02:18:22;;;;;;;68.10;62.70;;;;;;;7.33;100.00;102604.69;4960750;28;20440;-36
2024/01/30 02:20:50;;;;;;;67.23;61.70;;;;;;;7.33;100.00;102588.75;4971926;28;20463;-36
2024/01/30 02:23:21;;;;;;;66.00;60.90;;;;;;;7.34;100.00;102587.78;4963894;28;20852;-36
2024/01/30 02:25:49;;;;;;;69.00;63.00;;;;;;;7.31;100.00;102577.44;4960686;28;20447;-36
2024/01/30 02:28:16;;;;;;;65.10;59.90;;;;;;;7.30;100.00;102573.94;4960631;28;20804;-36
2024/01/30 02:30:44;;;;;;;67.00;61.80;;;;;;;7.29;100.00;102576.75;4959994;28;20511;-37
2024/01/30 02:33:12;;;;;;;68.47;62.27;;;;;;;7.22;100.00;102569.31;4959932;28;20476;-36
2024/01/30 02:35:40;;;;;;;67.70;62.53;;;;;;;7.19;100.00;102568.72;4963158;28;20469;-36
2024/01/30 02:38:08;;;;;;;70.40;64.33;;;;;;;7.13;100.00;102567.44;4963138;28;20535;-38
2024/01/30 02:40:37;;;;;;;67.10;62.10;;;;;;;7.07;100.00;102570.59;4960545;28;20467;-37
2024/01/30 02:43:05;;;;;;;70.27;64.33;;;;;;;7.01;100.00;102560.50;4959821;28;21186;-37
2024/01/30 02:45:34;;;;;;;67.43;61.73;;;;;;;6.95;100.00;102558.38;4961865;28;20444;-36
2024/01/30 02:48:01;;;;;;;66.70;60.93;;;;;;;6.90;100.00;102557.88;4963579;28;20470;-36
2024/01/30 02:50:29;;;;;;;69.83;64.13;;;;;;;6.83;100.00;102548.78;4954790;28;20530;-36
2024/01/30 02:52:57;;;;;;;67.40;62.30;;;;;;;6.78;100.00;102547.50;4963664;28;20906;-36
2024/01/30 02:55:25;;;;;;;66.20;60.90;;;;;;;6.74;100.00;102556.66;4962888;28;20993;-37
2024/01/30 02:57:54;;;;;;;68.17;62.60;;;;;;;6.69;100.00;102554.38;4963281;28;20531;-36
2024/01/30 03:00:22;;;;;;;65.97;60.73;;;;;;;6.64;100.00;102551.28;4962819;28;20489;-36
2024/01/30 03:02:50;;;;;;;65.20;59.90;;;;;;;6.59;100.00;102559.63;4959418;28;20460;-36
2024/01/30 03:05:17;;;;;;;68.23;62.73;;;;;;;6.55;100.00;102550.22;4959519;28;20444;-37
2024/01/30 03:07:45;;;;;;;65.03;59.60;;;;;;;6.52;100.00;102547.81;4962993;28;20526;-36
2024/01/30 03:10:13;;;;;;;68.40;62.27;;;;;;;6.48;100.00;102550.88;4962861;28;20537;-39
2024/01/30 03:12:41;;;;;;;66.40;61.03;;;;;;;6.43;100.00;102547.75;4960123;28;20484;-36
2024/01/30 03:15:11;;;;;;;67.13;62.23;;;;;;;6.39;100.00;102548.97;4960152;28;20482;-36
2024/01/30 03:17:38;;;;;;;65.93;60.47;;;;;;;6.34;100.00;102540.53;4960776;28;20883;-36
2024/01/30 03:20:07;;;;;;;67.10;61.67;;;;;;;6.31;100.00;102543.44;4961425;28;20458;-36
2024/01/30 03:22:35;;;;;;;68.80;62.70;;;;;;;6.28;100.00;102549.84;4961398;28;20538;-40
2024/01/30 03:25:04;;;;;;;67.17;61.70;;;;;;;6.24;100.00;102540.47;4959244;28;20440;-36
2024/01/30 03:27:32;;;;;;;66.73;61.40;;;;;;;6.21;100.00;102548.66;4967793;28;20472;-36
2024/01/30 03:29:59;;;;;;;67.63;61.63;;;;;;;6.19;100.00;102544.44;4958891;28;20878;-36
2024/01/30 03:32:28;;;;;;;65.80;60.10;;;;;;;6.17;100.00;102544.56;4960074;28;20483;-36
2024/01/30 03:34:57;;;;;;;64.23;59.10;;;;;;;6.14;100.00;102539.53;4963056;28;20482;-36
2024/01/30 03:37:26;;;;;;;67.13;61.43;;;;;;;6.12;100.00;102531.69;4961592;28;21015;-36
2024/01/30 03:39:53;;;;;;;64.20;58.80;;;;;;;6.10;100.00;102530.97;4963449;28;20459;-36
2024/01/30 03:42:22;;;;;;;65.77;60.17;;;;;;;6.11;100.00;102535.31;4962378;28;20467;-36
2024/01/30 03:44:51;;;;;;;66.50;60.73;;;;;;;6.10;100.00;102546.88;4961883;28;20439;-38
2024/01/30 03:47:19;;;;;;;64.83;59.73;;;;;;;6.09;100.00;102545.19;4962228;28;20811;-36
2024/01/30 03:49:49;;;;;;;64.37;58.73;;;;;;;6.08;100.00;102545.31;4959504;28;20867;-37
2024/01/30 03:52:17;;;;;;;65.40;59.93;;;;;;;6.05;100.00;102535.81;4958744;28;20476;-37
2024/01/30 03:54:45;;;;;;;68.50;62.30;;;;;;;6.03;100.00;102534.25;4965134;28;20472;-36
2024/01/30 03:57:13;;;;;;;65.20;59.70;;;;;;;6.01;100.00;102534.38;4959734;28;20444;-36
2024/01/30 03:59:43;;;;;;;65.70;60.00;;;;;;;5.98;100.00;102529.31;4960697;28;20551;-36
2024/01/30 04:02:11;;;;;;;67.70;62.00;;;;;;;5.97;100.00;102526.81;4962484;28;20462;-36
2024/01/30 04:04:39;;;;;;;70.97;64.60;;;;;;;5.95;100.00;102526.06;4960342;28;20474;-36
2024/01/30 04:07:08;;;;;;;67.43;61.90;;;;;;;5.92;100.00;102534.25;4958795;28;20717;-36
2024/01/30 04:09:36;;;;;;;66.27;61.03;;;;;;;5.88;100.00;102520.44;4959895;28;20518;-37
2024/01/30 04:12:04;;;;;;;66.30;60.87;;;;;;;5.86;100.00;102522.34;4963796;28;20518;-36
2024/01/30 04:14:32;;;;;;;63.83;58.67;;;;;;;5.82;100.00;102523.56;4959741;28;20444;-36
2024/01/30 04:17:00;;;;;;;66.87;60.77;;;;;;;5.80;100.00;102524.63;4965708;28;20443;-36
2024/01/30 04:19:28;;;;;;;63.63;58.33;;;;;;;5.76;100.00;102518.75;4958720;28;20518;-36
2024/01/30 04:21:56;;;;;;;63.70;58.60;;;;;;;5.74;100.00;102523.31;4961782;28;20513;-36
2024/01/30 04:24:26;;;;;;;64.70;59.17;;;;;;;5.70;100.00;102518.38;4962521;28;20451;-36
2024/01/30 04:26:53;;;;;;;63.63;58.40;;;;;;;5.67;100.00;102515.97;4960034;28;21185;-36
2024/01/30 04:29:22;;;;;;;63.77;58.83;;;;;;;5.64;100.00;102521.50;4958254;28;21052;-37
2024/01/30 04:31:50;;;;;;;66.50;60.47;;;;;;;5.61;100.00;102501.44;4961174;28;20461;-37
2024/01/30 04:34:18;;;;;;;62.13;57.13;;;;;;;5.55;100.00;102500.09;4961490;28;20982;-36
2024/01/30 04:36:46;;;;;;;61.23;56.10;;;;;;;5.53;100.00;102499.38;4959439;28;21006;-36
2024/01/30 04:39:14;;;;;;;64.63;59.13;;;;;;;5.51;100.00;102503.13;4965245;28;20534;-37
2024/01/30 04:41:43;;;;;;;64.77;59.63;;;;;;;5.50;100.00;102512.84;4959108;28;20435;-36
2024/01/30 04:44:11;;;;;;;64.47;58.07;;;;;;;5.47;100.00;102507.78;4957760;28;20530;-37
2024/01/30 04:46:39;;;;;;;66.77;60.07;;;;;;;5.44;100.00;102513.34;4960272;28;20438;-36
2024/01/30 04:49:07;;;;;;;61.47;55.90;;;;;;;5.40;100.00;102511.91;4961201;28;20463;-47
2024/01/30 04:51:35;;;;;;;61.30;55.83;;;;;;;5.37;100.00;102508.66;5001294;23;20486;-46
2024/01/30 04:54:03;;;;;;;63.10;57.40;;;;;;;5.33;100.00;102499.25;4971820;28;20654;-44
2024/01/30 04:56:31;;;;;;;59.00;54.17;;;;;;;5.30;100.00;102495.06;4972209;28;20443;-42
2024/01/30 04:59:00;;;;;;;58.87;54.27;;;;;;;5.26;100.00;102492.75;4974895;28;20991;-46
2024/01/30 05:01:28;;;;;;;62.97;57.67;;;;;;;5.25;100.00;102499.03;4975387;28;20455;-45
2024/01/30 05:03:56;;;;;;;65.57;59.87;;;;;;;5.24;100.00;102505.28;4974740;28;20942;-44
2024/01/30 05:06:27;;;;;;;62.47;57.37;;;;;;;5.19;100.00;102512.72;4974946;28;20443;-47
2024/01/30 05:08:55;;;;;;;62.67;57.17;;;;;;;5.19;100.00;102512.72;4967343;28;20458;-45
2024/01/30 05:11:23;;;;;;;63.43;57.87;;;;;;;5.19;100.00;102512.72;4974789;28;20458;-43
2024/01/30 05:13:51;;;;;;;64.87;59.77;;;;;;;5.17;100.00;102504.91;4973678;28;20482;-46
2024/01/30 05:16:20;;;;;;;61.20;56.07;;;;;;;5.17;100.00;102506.72;4975022;28;20530;-44
2024/01/30 05:18:48;;;;;;;64.00;58.60;;;;;;;5.15;100.00;102508.63;4974306;28;20439;-44
2024/01/30 05:21:16;;;;;;;64.47;59.00;;;;;;;5.13;100.00;102503.47;4974770;28;20454;-45
2024/01/30 05:23:44;;;;;;;66.13;60.93;;;;;;;5.12;100.00;102516.78;4974096;28;20803;-46
2024/01/30 05:26:12;;;;;;;64.00;58.73;;;;;;;5.13;100.00;102523.78;4974991;28;20537;-45
2024/01/30 05:28:39;;;;;;;60.50;55.60;;;;;;;5.11;100.00;102515.13;4972682;28;20451;-45
2024/01/30 05:31:07;;;;;;;64.00;58.80;;;;;;;5.10;100.00;102509.00;4974678;28;20462;-45
2024/01/30 05:33:37;;;;;;;63.13;57.70;;;;;;;5.10;100.00;102497.56;4973822;28;21032;-44
2024/01/30 05:36:05;;;;;;;61.87;56.83;;;;;;;5.07;100.00;102501.31;4973401;28;20965;-49
2024/01/30 05:38:33;;;;;;;62.97;57.70;;;;;;;5.07;100.00;102495.16;4973707;28;20439;-43
2024/01/30 05:41:01;;;;;;;63.93;58.53;;;;;;;5.04;100.00;102496.25;4974057;28;20447;-44
2024/01/30 05:43:29;;;;;;;64.13;58.83;;;;;;;5.01;100.00;102491.19;4973791;28;20510;-43
2024/01/30 05:45:57;;;;;;;63.10;57.90;;;;;;;5.00;100.00;102492.13;4966471;28;20521;-45
2024/01/30 05:48:25;;;;;;;64.73;59.60;;;;;;;4.97;100.00;102487.94;4972963;28;20534;-44
2024/01/30 05:50:54;;;;;;;64.33;59.20;;;;;;;4.95;100.00;102489.88;4973288;28;20506;-44
2024/01/30 05:53:22;;;;;;;64.80;59.53;;;;;;;4.91;100.00;102488.41;4973445;28;20518;-42
2024/01/30 05:55:50;;;;;;;61.13;56.10;;;;;;;4.88;100.00;102480.72;4973807;28;20442;-45
2024/01/30 05:58:18;;;;;;;61.50;56.30;;;;;;;4.86;100.00;102473.84;4974515;28;20435;-45
2024/01/30 06:00:46;;;;;;;59.20;54.50;;;;;;;4.83;100.00;102477.59;4973404;28;20537;-45
2024/01/30 06:03:14;;;;;;;60.10;54.80;;;;;;;4.82;100.00;102467.97;4973933;28;20530;-42
2024/01/30 06:05:42;;;;;;;60.13;55.43;;;;;;;4.83;100.00;102474.09;4973834;28;20982;-42
2024/01/30 06:08:11;;;;;;;59.20;54.30;;;;;;;4.78;100.00;102471.78;4972947;28;20435;-45
2024/01/30 06:10:40;;;;;;;58.10;53.40;;;;;;;4.79;100.00;102464.72;4973045;28;20478;-44
2024/01/30 06:13:07;;;;;;;62.40;57.30;;;;;;;4.79;100.00;102462.91;4973134;28;20663;-47
2024/01/30 06:15:36;;;;;;;63.10;58.00;;;;;;;4.80;100.00;102461.97;4973924;28;20435;-44
2024/01/30 06:18:04;;;;;;;61.20;56.50;;;;;;;4.81;100.00;102460.97;4973512;28;20887;-43
2024/01/30 06:20:32;;;;;;;60.40;55.40;;;;;;;4.84;100.00;102459.91;4972504;28;20469;-41
2024/01/30 06:22:59;;;;;;;58.90;54.00;;;;;;;4.86;100.00;102456.22;4972413;28;20997;-41
2024/01/30 06:25:28;;;;;;;57.10;52.37;;;;;;;4.89;100.00;102448.03;4973314;28;20457;-47
2024/01/30 06:27:57;;;;;;;55.33;50.90;;;;;;;4.89;100.00;102458.63;4965276;28;20442;-45
2024/01/30 06:30:24;;;;;;;56.20;51.40;;;;;;;4.90;100.00;102464.72;4972767;28;20477;-45
2024/01/30 06:32:52;;;;;;;55.50;51.00;;;;;;;4.92;100.00;102463.66;4972712;28;20463;-47
2024/01/30 06:35:21;;;;;;;55.53;51.17;;;;;;;4.95;100.00;102457.28;4973268;28;20479;-43
2024/01/30 06:37:49;;;;;;;55.77;51.77;;;;;;;4.96;100.00;102464.25;4973245;28;20526;-45
2024/01/30 06:40:16;;;;;;;56.77;52.10;;;;;;;4.98;100.00;102470.28;4973338;28;20462;-46
2024/01/30 06:42:46;;;;;;;57.33;52.63;;;;;;;4.99;100.00;102477.22;4972242;28;20451;-45
2024/01/30 06:45:14;;;;;;;54.77;50.47;;;;;;;5.00;100.00;102458.63;4973204;28;20795;-42
2024/01/30 06:47:42;;;;;;;56.30;51.80;;;;;;;5.00;100.00;102444.56;4972589;28;20530;-44
2024/01/30 06:50:10;;;;;;;55.97;51.70;;;;;;;5.00;100.00;102447.19;4972745;28;20459;-44
2024/01/30 06:52:39;;;;;;;55.80;51.60;;;;;;;4.97;100.00;102442.16;4972002;28;20533;-42
2024/01/30 06:55:07;;;;;;;55.60;50.87;;;;;;;4.97;100.00;102444.78;4973033;28;20862;-42
2024/01/30 06:57:35;;;;;;;53.07;49.07;;;;;;;4.97;100.00;102445.63;4972695;28;20443;-43
2024/01/30 07:00:05;;;;;;;54.77;50.47;;;;;;;4.93;100.00;102440.69;4972192;28;20550;-43
2024/01/30 07:02:33;;;;;;;55.00;50.80;;;;;;;4.89;100.00;102437.47;4971062;28;20455;-42
2024/01/30 07:05:01;;;;;;;55.20;50.80;;;;;;;4.88;100.00;102424.34;4964003;28;20431;-41
2024/01/30 07:07:29;;;;;;;54.63;50.53;;;;;;;4.87;100.00;102417.38;4972184;28;20518;-42
2024/01/30 07:09:57;;;;;;;55.30;50.80;;;;;;;4.86;100.00;102415.72;4972098;28;21173;-45
2024/01/30 07:12:26;;;;;;;56.27;51.57;;;;;;;4.84;100.00;102433.47;4971877;28;20577;-42
2024/01/30 07:14:56;;;;;;;53.40;49.30;;;;;;;4.81;100.00;102434.56;4971105;28;21036;-45
2024/01/30 07:17:25;;;;;;;55.30;51.07;;;;;;;4.82;100.00;102432.75;4972849;28;20763;-42
2024/01/30 07:19:54;;;;;;;53.30;49.07;;;;;;;4.80;100.00;102427.59;4970821;28;20841;-42
2024/01/30 07:22:22;;;;;;;53.97;49.70;;;;;;;4.79;100.00;102414.50;4972339;28;20462;-47
2024/01/30 07:24:51;;;;;;;53.60;49.77;;;;;;;4.77;100.00;102416.41;4971697;28;20851;-44
2024/01/30 07:27:21;;;;;;;54.70;50.67;;;;;;;4.79;100.00;102419.78;4972012;28;20809;-45
2024/01/30 07:29:50;;;;;;;54.23;49.80;;;;;;;4.81;100.00;102401.97;4971438;28;20462;-44
2024/01/30 07:32:18;;;;;;;53.77;49.50;;;;;;;4.84;100.00;102399.94;4972024;28;20454;-42
2024/01/30 07:34:47;;;;;;;53.80;49.17;;;;;;;4.82;100.00;102388.66;4970293;28;20478;-43
2024/01/30 07:37:33;;;;;;;53.90;49.80;;;;;;;4.88;100.00;102396.13;4972729;28;20599;-47
2024/01/30 07:40:02;;;;;;;50.77;47.03;;;;;;;4.91;100.00;102393.25;4970461;28;20866;-46
2024/01/30 07:42:31;;;;;;;52.80;48.47;;;;;;;4.95;100.00;102397.34;4972014;28;20454;-44
2024/01/30 07:44:59;;;;;;;53.43;49.23;;;;;;;4.98;100.00;102399.75;4972995;28;20431;-44
2024/01/30 07:47:26;;;;;;;52.40;48.50;;;;;;;5.01;100.00;102394.22;4972617;28;20856;-42
2024/01/30 07:49:56;;;;;;;52.70;48.23;;;;;;;5.06;100.00;102391.19;4971957;28;20554;-41
2024/01/30 07:52:24;;;;;;;55.10;50.93;;;;;;;5.09;100.00;102396.25;4972469;28;20462;-43
2024/01/30 07:58:27;;;;;;;50.17;46.43;;;;;;;5.19;100.00;102397.22;4894304;29;20530;-41
2024/01/30 08:00:57;;;;;;;50.50;46.67;;;;;;;5.23;100.00;102398.63;4963986;28;20463;-41
2024/01/30 08:03:25;;;;;;;52.07;48.37;;;;;;;5.28;100.00;102406.22;4972210;28;20938;-43
2024/01/30 08:05:55;;;;;;;52.10;47.90;;;;;;;5.31;100.00;102412.09;4972460;28;20431;-43
2024/01/30 08:08:23;;;;;;;54.03;49.57;;;;;;;5.35;100.00;102405.59;4972179;28;20435;-42
2024/01/30 08:10:51;;;;;;;50.60;46.63;;;;;;;5.42;100.00;102408.59;4970792;28;20474;-41
2024/01/30 08:13:18;;;;;;;53.40;49.00;;;;;;;5.48;100.00;102406.31;4972080;28;20431;-44
2024/01/30 08:15:46;;;;;;;53.17;49.17;;;;;;;5.52;100.00;102394.53;4972234;28;20478;-42
2024/01/30 08:18:14;;;;;;;51.10;47.50;;;;;;;5.57;100.00;102388.84;4972313;28;20948;-41
2024/01/30 08:20:42;;;;;;;54.33;50.10;;;;;;;5.60;100.00;102385.94;4971657;28;20466;-41
2024/01/30 08:23:11;;;;;;;54.37;50.53;;;;;;;5.62;100.00;102376.06;4971454;28;20522;-43
2024/01/30 08:25:40;;;;;;;50.13;46.63;;;;;;;5.66;100.00;102387.25;4971603;28;20530;-44
2024/01/30 08:28:08;;;;;;;51.37;47.77;;;;;;;5.70;100.00;102381.59;4971747;28;20986;-42
2024/01/30 08:30:36;;;;;;;51.30;47.50;;;;;;;5.72;100.00;102379.66;4970707;28;20526;-43
2024/01/30 08:33:04;;;;;;;53.20;49.17;;;;;;;5.76;100.00;102386.38;4975011;28;20422;-42
2024/01/30 08:35:33;;;;;;;50.23;46.63;;;;;;;5.78;100.00;102381.78;4975971;28;20478;-44
2024/01/30 08:38:01;;;;;;;53.53;49.73;;;;;;;5.78;100.00;102383.59;4976168;28;20494;-46
2024/01/30 08:40:31;;;;;;;50.80;47.00;;;;;;;5.84;100.00;102383.09;4975852;28;20889;-44
2024/01/30 08:42:59;;;;;;;54.00;50.17;;;;;;;5.88;100.00;102377.47;4975023;28;20698;-43
2024/01/30 08:45:27;;;;;;;51.03;47.13;;;;;;;5.95;100.00;102389.22;4973811;28;20853;-39
2024/01/30 08:47:55;;;;;;;52.40;48.77;;;;;;;6.00;100.00;102389.66;4975228;28;20481;-44
2024/01/30 08:50:23;;;;;;;52.07;48.20;;;;;;;6.07;100.00;102374.13;4974775;28;21032;-43
2024/01/30 08:52:51;;;;;;;53.43;49.40;;;;;;;6.15;100.00;102368.19;4973837;28;20494;-43
2024/01/30 08:55:19;;;;;;;52.00;48.40;;;;;;;6.18;100.00;102375.88;4974731;28;20474;-46
2024/01/30 08:57:48;;;;;;;54.27;50.43;;;;;;;6.26;100.00;102376.94;4975583;28;20443;-45
2024/01/30 09:00:17;;;;;;;52.83;48.80;;;;;;;6.32;100.00;102372.91;4973046;28;20463;-47
2024/01/30 09:02:44;;;;;;;52.37;48.43;;;;;;;6.37;100.00;102392.75;4974108;28;20458;-43
2024/01/30 09:05:12;;;;;;;54.80;50.90;;;;;;;6.45;100.00;102386.81;4975858;28;20426;-42
2024/01/30 09:07:40;;;;;;;53.93;49.90;;;;;;;6.46;100.00;102391.97;4975385;28;20565;-42
2024/01/30 09:10:09;;;;;;;51.00;47.40;;;;;;;6.50;100.00;102400.50;4975187;28;20501;-41
2024/01/30 09:12:41;;;;;;;52.40;48.33;;;;;;;6.56;100.00;102403.50;4974174;28;20891;-43
2024/01/30 09:15:11;;;;;;;51.10;47.50;;;;;;;6.63;100.00;102403.81;4975370;28;20484;-43
2024/01/30 09:17:38;;;;;;;53.43;49.27;;;;;;;6.72;100.00;102394.22;4975458;28;20435;-43
2024/01/30 09:20:09;;;;;;;52.27;48.57;;;;;;;6.76;100.00;102399.13;4967062;28;20458;-42
2024/01/30 09:22:36;;;;;;;54.00;50.20;;;;;;;6.80;100.00;102389.94;4975051;28;20462;-43
2024/01/30 09:25:05;;;;;;;51.53;48.03;;;;;;;6.88;100.00;102392.75;4975284;28;20493;-42
2024/01/30 09:27:33;;;;;;;51.83;48.20;;;;;;;6.90;100.00;102397.94;4975513;28;20443;-42
2024/01/30 09:30:01;;;;;;;52.03;48.33;;;;;;;6.97;100.00;102397.28;4973992;28;20883;-41
2024/01/30 09:32:30;;;;;;;52.17;48.67;;;;;;;7.06;100.00;102385.88;4972486;28;20827;-42
2024/01/30 09:34:58;;;;;;;54.07;49.57;;;;;;;7.12;100.00;102373.88;4972203;28;20459;-42
2024/01/30 09:37:26;;;;;;;54.33;50.53;;;;;;;7.18;100.00;102391.91;4974092;28;20439;-43
2024/01/30 09:39:55;;;;;;;53.87;50.20;;;;;;;7.25;100.00;102395.72;4972116;28;20474;-42
2024/01/30 09:42:29;;;;;;;52.60;48.87;;;;;;;7.38;100.00;102393.63;4972461;28;20553;-42
2024/01/30 09:44:57;;;;;;;52.40;48.97;;;;;;;7.46;100.00;102388.50;4971573;28;20463;-42
2024/01/30 09:47:25;;;;;;;53.60;49.90;;;;;;;7.58;100.00;102389.22;4973423;28;20803;-41
2024/01/30 09:49:57;;;;;;;54.77;50.87;;;;;;;7.72;100.00;102384.34;4972515;28;20473;-42
2024/01/30 09:52:25;;;;;;;53.40;49.50;;;;;;;7.87;100.00;102378.63;4973567;28;20473;-45
2024/01/30 09:54:54;;;;;;;51.00;47.60;;;;;;;8.03;100.00;102386.91;4974475;28;20439;-41
2024/01/30 09:57:22;;;;;;;52.33;48.70;;;;;;;8.19;100.00;102368.53;4975012;28;20439;-41
2024/01/30 09:59:51;;;;;;;53.37;49.60;;;;;;;8.29;100.00;102354.31;4974265;28;20466;-43
2024/01/30 10:02:20;;;;;;;52.70;49.03;;;;;;;8.36;100.00;102356.41;4974447;28;21045;-43
2024/01/30 10:04:49;;;;;;;52.30;48.80;;;;;;;8.45;100.00;102339.59;4974685;28;20434;-44
2024/01/30 10:07:18;;;;;;;51.50;48.10;;;;;;;8.50;100.00;102347.97;4974466;28;20427;-45
2024/01/30 10:09:47;;;;;;;51.23;47.57;;;;;;;8.56;100.00;102326.97;4973858;28;20545;-43
2024/01/30 10:12:15;;;;;;;53.47;49.87;;;;;;;8.60;100.00;102327.53;4974145;28;20466;-42
2024/01/30 10:14:44;;;;;;;53.23;49.40;;;;;;;8.64;100.00;102318.25;4974060;28;20443;-42
2024/01/30 10:17:12;;;;;;;52.17;48.73;;;;;;;8.65;100.00;102317.28;4974298;28;20475;-42
2024/01/30 10:19:54;;;;;;;55.40;51.60;;;;;;;8.65;100.00;102318.13;4973809;28;20455;-44
2024/01/30 10:22:24;;;;;;;53.27;49.67;;;;;;;8.69;100.00;102324.00;4973996;28;20482;-42
2024/01/30 10:24:52;;;;;;;51.83;48.33;;;;;;;8.70;100.00;102329.16;4974154;28;20442;-41
2024/01/30 10:27:26;;;;;;;51.60;48.20;;;;;;;8.68;100.00;102335.59;4974010;28;20435;-42
2024/01/30 10:29:54;;;;;;;49.93;46.83;;;;;;;8.67;100.00;102342.72;4973560;28;20541;-43
2024/01/30 10:32:22;;;;;;;54.73;51.17;;;;;;;8.59;100.00;102344.44;4973401;28;20459;-42
2024/01/30 10:34:50;;;;;;;52.37;48.47;;;;;;;8.57;100.00;102333.94;4971830;28;20431;-45
2024/01/30 10:37:22;;;;;;;54.67;50.97;;;;;;;8.49;100.00;102336.50;4971600;28;20510;-42
2024/01/30 10:39:55;;;;;;;56.07;52.13;;;;;;;8.48;100.00;102339.31;4973646;28;21072;-44
2024/01/30 10:42:28;;;;;;;52.87;49.50;;;;;;;8.50;100.00;102343.50;4973952;28;20458;-41
2024/01/30 10:45:01;;;;;;;54.13;50.40;;;;;;;8.50;100.00;102340.00;4973580;28;20997;-42
2024/01/30 10:47:30;;;;;;;51.30;48.00;;;;;;;8.51;100.00;102349.66;4973639;28;20431;-42
2024/01/30 10:49:58;;;;;;;53.20;49.30;;;;;;;8.52;100.00;102356.63;4971634;28;20517;-43
2024/01/30 10:52:27;;;;;;;53.97;50.40;;;;;;;8.50;100.00;102362.09;4971800;28;20553;-42
2024/01/30 10:54:57;;;;;;;52.57;49.27;;;;;;;8.51;100.00;102353.13;4971266;28;20439;-42
2024/01/30 10:57:26;;;;;;;52.70;49.27;;;;;;;8.54;100.00;102342.19;4971536;28;20514;-43
2024/01/30 10:59:58;;;;;;;54.37;50.87;;;;;;;8.50;100.00;102329.34;4971250;28;20454;-42
2024/01/30 11:02:26;;;;;;;53.60;50.20;;;;;;;8.55;100.00;102345.69;4973835;28;20463;-43
2024/01/30 11:04:58;;;;;;;54.10;50.30;;;;;;;8.55;100.00;102345.69;4972945;28;20441;-42
2024/01/30 11:07:28;;;;;;;52.93;49.60;;;;;;;8.54;100.00;102371.44;4972193;28;20870;-43
2024/01/30 11:10:03;;;;;;;51.63;48.17;;;;;;;8.54;100.00;102352.03;4969661;28;20454;-45
2024/01/30 11:12:34;;;;;;;52.17;48.73;;;;;;;8.47;100.00;102365.06;4969815;28;20949;-45
2024/01/30 11:15:06;;;;;;;50.07;46.90;;;;;;;8.51;100.00;102350.47;4971163;28;21200;-47
2024/01/30 11:17:44;;;;;;;51.97;48.57;;;;;;;8.56;100.00;102353.56;4972485;28;20474;-42
2024/01/30 11:20:14;;;;;;;52.40;49.00;;;;;;;8.53;100.00;102347.69;4971166;28;20459;-41